createdAt,value
2018-02-06T00:00:43.381Z,39.30
2018-02-06T00:03:11.210Z,39.20
2018-02-06T00:05:40.468Z,39.20
2018-02-06T00:08:08.538Z,39.20
2018-02-06T00:10:36.097Z,39.10
2018-02-06T00:13:03.961Z,39.10
2018-02-06T00:15:31.543Z,39.10
2018-02-06T00:17:59.180Z,39.00
2018-02-06T00:20:27.048Z,38.90
2018-02-06T00:22:54.912Z,39.00
2018-02-06T00:25:22.776Z,38.90
2018-02-06T00:27:50.642Z,38.80
2018-02-06T00:30:18.507Z,38.90
2018-02-06T00:32:47.191Z,38.80
2018-02-06T00:35:15.057Z,38.80
2018-02-06T00:37:42.923Z,38.80
2018-02-06T00:40:10.787Z,38.80
2018-02-06T00:42:38.652Z,38.80
2018-02-06T00:45:07.646Z,38.80
2018-02-06T00:47:36.473Z,38.70
2018-02-06T00:50:05.050Z,38.70
2018-02-06T00:52:32.554Z,38.70
2018-02-06T00:55:00.124Z,38.70
2018-02-06T00:57:27.636Z,38.70
2018-02-06T00:59:55.125Z,38.70
2018-02-06T01:02:23.396Z,38.60
2018-02-06T01:04:51.668Z,38.70
2018-02-06T01:07:19.919Z,38.70
2018-02-06T01:09:47.432Z,38.70
2018-02-06T01:12:16.927Z,38.60
2018-02-06T01:14:44.417Z,38.70
2018-02-06T01:17:11.908Z,38.60
2018-02-06T01:19:40.205Z,38.60
2018-02-06T01:22:07.701Z,38.60
2018-02-06T01:24:35.193Z,38.60
2018-02-06T01:27:03.477Z,38.60
2018-02-06T01:29:31.757Z,38.60
2018-02-06T01:32:00.035Z,38.50
2018-02-06T01:34:28.299Z,38.50
2018-02-06T01:36:55.809Z,38.50
2018-02-06T01:39:25.298Z,38.50
2018-02-06T01:41:52.820Z,38.60
2018-02-06T01:44:21.108Z,38.60
2018-02-06T01:46:50.576Z,39.20
2018-02-06T01:49:18.072Z,38.50
2018-02-06T01:51:45.593Z,38.50
2018-02-06T01:54:13.087Z,38.50
2018-02-06T01:56:40.630Z,38.50
2018-02-06T01:59:08.901Z,38.50
2018-02-06T02:01:37.185Z,38.50
2018-02-06T02:04:04.677Z,38.50
2018-02-06T02:06:32.181Z,38.50
2018-02-06T02:09:00.514Z,38.60
2018-02-06T02:11:27.989Z,38.60
2018-02-06T02:13:55.508Z,38.50
2018-02-06T02:16:23.029Z,38.60
2018-02-06T02:18:51.301Z,38.50
2018-02-06T02:21:19.589Z,38.70
2018-02-06T02:23:48.807Z,38.60
2018-02-06T02:26:16.330Z,38.60
2018-02-06T02:28:43.821Z,38.60
2018-02-06T02:31:11.317Z,38.60
2018-02-06T02:33:39.795Z,38.60
2018-02-06T02:36:07.293Z,38.70
2018-02-06T02:38:35.578Z,38.60
2018-02-06T02:41:03.085Z,38.60
2018-02-06T04:39:24.916Z,38.70
2018-02-06T04:41:52.432Z,38.80
2018-02-06T04:44:19.924Z,38.70
2018-02-06T04:46:47.419Z,38.70
2018-02-06T04:49:14.937Z,38.80
2018-02-06T04:51:42.424Z,38.70
2018-02-06T04:54:11.884Z,38.70
2018-02-06T04:56:39.373Z,38.70
2018-02-06T04:59:10.368Z,38.80
2018-02-06T05:01:37.865Z,38.80
2018-02-06T05:04:05.359Z,38.80
2018-02-06T05:06:33.643Z,38.80
2018-02-06T05:09:01.133Z,38.70
2018-02-06T05:11:28.649Z,38.70
2018-02-06T05:13:56.908Z,38.80
2018-02-06T05:16:24.421Z,38.70
2018-02-06T05:18:51.912Z,38.80
2018-02-06T05:21:19.418Z,38.80
2018-02-06T05:23:47.896Z,38.70
2018-02-06T05:26:15.392Z,38.70
2018-02-06T05:28:42.905Z,39.40
2018-02-06T05:31:11.356Z,38.70
2018-02-06T05:33:39.644Z,38.80
2018-02-06T05:36:08.109Z,38.70
2018-02-06T05:38:36.368Z,38.70
2018-02-06T05:41:03.886Z,38.70
2018-02-06T05:43:32.329Z,38.70
2018-02-06T05:46:00.609Z,38.80
2018-02-06T05:48:28.865Z,38.80
2018-02-06T05:50:57.157Z,38.80
2018-02-06T05:53:24.684Z,38.70
2018-02-06T05:55:53.128Z,38.70
2018-02-06T05:58:20.642Z,38.70
2018-02-06T06:00:48.901Z,38.80
2018-02-06T06:03:17.204Z,39.20
2018-02-06T06:05:44.707Z,38.70
2018-02-06T06:08:12.217Z,38.70
2018-02-06T06:10:39.743Z,38.70
2018-02-06T06:13:07.237Z,38.80
2018-02-06T06:15:34.761Z,38.80
2018-02-06T06:18:03.061Z,38.80
2018-02-06T06:20:31.344Z,38.80
2018-02-06T06:22:58.865Z,38.80
2018-02-06T06:25:27.131Z,39.50
2018-02-06T06:27:56.352Z,38.80
2018-02-06T06:30:24.604Z,38.80
2018-02-06T06:32:52.130Z,38.80
2018-02-06T06:35:19.617Z,38.80
2018-02-06T06:37:47.138Z,38.90
2018-02-06T06:40:14.633Z,39.30
2018-02-06T06:42:42.935Z,39.00
2018-02-06T06:45:11.199Z,39.00
2018-02-06T06:47:38.708Z,38.90
2018-02-06T06:50:06.217Z,39.00
2018-02-06T06:52:34.478Z,38.80
2018-02-06T06:55:03.567Z,38.90
2018-02-06T06:57:31.041Z,38.90
2018-02-06T06:59:59.329Z,38.90
2018-02-06T07:02:27.601Z,38.90
2018-02-06T07:04:55.113Z,38.90
2018-02-06T07:07:22.624Z,38.90
2018-02-06T07:09:50.113Z,38.90
2018-02-06T07:12:17.629Z,38.90
2018-02-06T07:14:45.896Z,38.90
2018-02-06T07:17:14.194Z,38.90
2018-02-06T07:19:41.705Z,38.90
2018-02-06T07:22:10.700Z,38.90
2018-02-06T07:24:38.978Z,38.90
2018-02-06T07:27:07.985Z,38.90
2018-02-06T07:29:36.271Z,38.90
2018-02-06T07:32:04.524Z,38.90
2018-02-06T07:34:32.036Z,38.90
2018-02-06T07:36:59.525Z,38.90
2018-02-06T07:39:28.531Z,38.90
2018-02-06T07:41:56.057Z,38.80
2018-02-06T07:44:23.557Z,38.80
2018-02-06T07:46:51.837Z,38.80
2018-02-06T07:49:20.101Z,38.90
2018-02-06T07:51:47.617Z,38.80
2018-02-06T07:54:15.105Z,38.80
2018-02-06T07:56:42.606Z,38.80
2018-02-06T07:59:10.121Z,38.80
2018-02-06T08:01:37.620Z,38.80
2018-02-06T08:04:05.145Z,38.50
2018-02-06T08:06:33.422Z,38.80
2018-02-06T08:09:01.706Z,38.80
2018-02-06T08:11:29.969Z,38.80
2018-02-06T08:13:57.466Z,38.80
2018-02-06T08:16:24.990Z,38.80
2018-02-06T08:18:53.259Z,38.80
2018-02-06T08:21:21.554Z,38.80
2018-02-06T08:23:49.064Z,38.80
2018-02-06T08:26:16.689Z,38.80
2018-02-06T08:28:45.144Z,38.80
2018-02-06T08:31:13.406Z,38.80
2018-02-06T08:33:43.642Z,38.80
2018-02-06T08:36:11.909Z,38.80
2018-02-06T08:38:40.202Z,39.40
2018-02-06T08:41:07.733Z,38.80
2018-02-06T08:43:35.252Z,38.80
2018-02-06T08:46:02.745Z,38.80
2018-02-06T08:48:30.344Z,38.80
2018-02-06T08:50:57.868Z,38.80
2018-02-06T08:53:26.154Z,38.80
2018-02-06T08:55:54.437Z,38.80
2018-02-06T08:58:21.932Z,38.90
2018-02-06T09:00:49.453Z,38.80
2018-02-06T09:03:16.953Z,39.00
2018-02-06T09:05:44.445Z,38.90
2018-02-06T09:08:12.733Z,39.10
2018-02-06T09:10:40.997Z,38.90
2018-02-06T09:13:09.278Z,39.00
2018-02-06T09:15:37.536Z,39.10
2018-02-06T09:18:05.068Z,39.10
2018-02-06T09:20:32.560Z,39.10
2018-02-06T09:23:00.820Z,39.10
2018-02-06T09:25:28.337Z,39.00
2018-02-06T09:27:55.833Z,39.00
2018-02-06T09:30:23.353Z,39.00
2018-02-06T09:32:50.878Z,39.10
2018-02-06T09:35:19.157Z,39.00
2018-02-06T09:37:46.697Z,39.00
2018-02-06T09:40:14.961Z,39.00
2018-02-06T09:42:42.486Z,39.00
2018-02-06T09:45:09.977Z,39.00
2018-02-06T09:47:37.497Z,39.00
2018-02-06T09:50:04.999Z,38.90
2018-02-06T09:52:33.280Z,38.90
2018-02-06T09:55:01.547Z,39.00
2018-02-06T09:57:30.063Z,39.00
2018-02-06T09:59:57.927Z,39.00
2018-02-06T10:02:25.792Z,38.90
2018-02-06T10:04:53.592Z,39.00
2018-02-06T10:07:21.524Z,38.90
2018-02-06T10:09:49.146Z,38.90
2018-02-06T10:12:17.423Z,38.90
2018-02-06T10:14:45.709Z,38.90
2018-02-06T10:17:14.006Z,38.90
2018-02-06T10:19:41.501Z,38.90
2018-02-06T10:22:09.028Z,38.90
2018-02-06T10:24:38.512Z,38.80
2018-02-06T10:27:06.032Z,38.90
2018-02-06T10:29:33.540Z,38.90
2018-02-06T10:32:01.960Z,38.90
2018-02-06T10:34:32.937Z,38.90
2018-02-06T10:37:01.208Z,38.80
2018-02-06T10:39:29.468Z,38.80
2018-02-06T10:41:57.018Z,38.80
2018-02-06T10:44:24.535Z,39.60
2018-02-06T10:46:52.056Z,38.90
2018-02-06T10:49:20.312Z,38.90
2018-02-06T10:51:47.811Z,38.90
2018-02-06T10:54:15.324Z,39.10
2018-02-06T10:56:43.597Z,39.20
2018-02-06T10:59:13.863Z,39.20
2018-02-06T11:01:41.356Z,39.20
2018-02-06T11:04:08.870Z,39.10
2018-02-06T11:06:36.741Z,39.20
2018-02-06T11:09:04.240Z,39.40
2018-02-06T11:11:31.769Z,39.50
2018-02-06T11:13:59.265Z,39.60
2018-02-06T11:16:26.781Z,39.60
2018-02-06T11:18:54.264Z,39.60
2018-02-06T11:21:21.752Z,39.60
2018-02-06T11:23:50.032Z,39.40
2018-02-06T11:26:18.292Z,39.40
2018-02-06T11:28:45.840Z,39.40
2018-02-06T11:31:13.376Z,39.40
2018-02-06T11:33:41.030Z,39.40
2018-02-06T11:36:09.840Z,39.40
2018-02-06T11:38:37.394Z,39.40
2018-02-06T11:41:05.321Z,39.40
2018-02-06T11:43:32.885Z,39.30
2018-02-06T11:46:01.454Z,39.30
2018-02-06T11:48:28.957Z,39.40
2018-02-06T11:50:57.980Z,39.40
2018-02-06T11:53:26.268Z,39.30
2018-02-06T11:55:53.784Z,39.30
2018-02-06T11:58:22.077Z,39.20
2018-02-06T12:00:49.576Z,39.30
2018-02-06T12:03:17.092Z,39.20
2018-02-06T12:05:44.648Z,39.20
2018-02-06T12:08:12.139Z,39.20
2018-02-06T12:10:39.672Z,39.20
2018-02-06T12:13:07.958Z,39.20
2018-02-06T12:15:37.170Z,39.10
2018-02-06T12:18:04.669Z,39.10
2018-02-06T12:20:34.120Z,39.10
2018-02-06T12:23:01.617Z,39.10
2018-02-06T12:25:29.137Z,39.10
2018-02-06T12:27:56.629Z,39.10
2018-02-06T12:30:24.192Z,39.10
2018-02-06T12:32:52.334Z,39.10
2018-02-06T12:35:21.743Z,39.10
2018-02-06T12:37:49.818Z,39.10
2018-02-06T12:40:17.571Z,39.00
2018-02-06T12:42:46.458Z,39.00
2018-02-06T12:45:14.323Z,39.00
2018-02-06T12:47:42.291Z,39.00
2018-02-06T12:50:09.979Z,39.00
2018-02-06T12:52:37.505Z,39.00
2018-02-06T12:55:05.000Z,39.00
2018-02-06T12:57:32.512Z,39.00
2018-02-06T13:00:00.059Z,39.00
2018-02-06T13:02:28.317Z,39.00
2018-02-06T13:04:56.573Z,39.00
2018-02-06T13:07:24.086Z,39.00
2018-02-06T13:09:51.604Z,39.00
2018-02-06T13:12:19.120Z,39.00
2018-02-06T13:14:46.616Z,39.10
2018-02-06T13:17:16.091Z,39.20
2018-02-06T13:19:43.579Z,39.10
2018-02-06T13:22:11.091Z,39.10
2018-02-06T13:24:38.600Z,39.10
2018-02-06T13:27:06.888Z,39.30
2018-02-06T13:29:35.637Z,39.30
2018-02-06T13:32:03.921Z,39.20
2018-02-06T13:34:31.425Z,39.30
2018-02-06T13:36:58.940Z,39.90
2018-02-06T13:39:27.964Z,39.20
2018-02-06T13:41:55.477Z,39.20
2018-02-06T13:44:23.737Z,39.20
2018-02-06T13:46:51.224Z,39.20
2018-02-06T13:49:19.506Z,39.10
2018-02-06T13:51:47.784Z,39.10
2018-02-06T13:54:18.036Z,39.30
2018-02-06T13:56:46.003Z,39.10
2018-02-06T13:59:13.624Z,39.20
2018-02-06T14:01:42.245Z,39.10
2018-02-06T14:04:10.055Z,39.10
2018-02-06T14:06:37.757Z,39.10
2018-02-06T14:09:05.582Z,39.00
2018-02-06T14:11:34.412Z,39.00
2018-02-06T14:14:01.934Z,38.90
2018-02-06T14:16:29.744Z,38.90
2018-02-06T14:18:59.236Z,38.90
2018-02-06T14:21:26.757Z,38.90
2018-02-06T14:23:54.281Z,38.90
2018-02-06T14:26:21.786Z,38.90
2018-02-06T14:28:50.090Z,38.90
2018-02-06T14:31:17.617Z,38.90
2018-02-06T14:33:45.909Z,38.90
2018-02-06T14:36:13.419Z,38.90
2018-02-06T14:38:40.909Z,39.00
2018-02-06T14:41:09.192Z,38.90
2018-02-06T14:43:37.449Z,39.00
2018-02-06T14:46:05.009Z,39.00
2018-02-06T14:48:33.297Z,39.30
2018-02-06T14:51:01.569Z,39.40
2018-02-06T14:53:29.832Z,39.60
2018-02-06T14:55:57.363Z,39.50
2018-02-06T14:58:24.872Z,39.50
2018-02-06T15:00:52.396Z,39.70
2018-02-06T15:03:19.922Z,39.60
2018-02-06T15:05:47.418Z,39.60
2018-02-06T15:08:14.944Z,39.60
2018-02-06T15:10:42.440Z,39.50
2018-02-06T15:13:10.736Z,39.50
2018-02-06T15:15:38.245Z,39.50
2018-02-06T15:18:07.473Z,39.60
2018-02-06T15:20:35.739Z,39.80
2018-02-06T15:23:03.238Z,39.70
2018-02-06T15:25:30.760Z,39.80
2018-02-06T15:27:59.048Z,39.60
2018-02-06T15:30:26.574Z,39.60
2018-02-06T15:32:54.127Z,39.60
2018-02-06T15:35:21.626Z,39.70
2018-02-06T15:37:50.083Z,39.80
2018-02-06T15:40:18.381Z,39.80
2018-02-06T15:42:46.842Z,39.80
2018-02-06T15:45:15.120Z,40.40
2018-02-06T15:47:43.413Z,40.40
2018-02-06T15:50:11.070Z,40.40
2018-02-06T15:52:38.600Z,40.30
2018-02-06T15:55:06.883Z,40.30
2018-02-06T15:57:35.177Z,40.50
2018-02-06T16:00:02.731Z,40.60
2018-02-06T16:02:30.250Z,40.70
2018-02-06T16:04:57.789Z,40.80
2018-02-06T16:07:25.284Z,40.80
2018-02-06T16:09:53.595Z,40.40
2018-02-06T16:12:21.105Z,40.40
2018-02-06T16:14:48.626Z,40.40
2018-02-06T16:17:16.136Z,40.40
2018-02-06T16:19:46.388Z,41.00
2018-02-06T16:22:13.900Z,41.00
2018-02-06T16:24:42.361Z,41.30
2018-02-06T16:27:09.881Z,41.70
2018-02-06T16:29:37.381Z,41.20
2018-02-06T16:32:07.601Z,41.80
2018-02-06T16:34:35.106Z,41.90
2018-02-06T16:37:02.623Z,41.20
2018-02-06T16:39:30.889Z,41.10
2018-02-06T16:41:58.406Z,41.10
2018-02-06T16:44:25.907Z,41.20
2018-02-06T16:46:53.404Z,41.00
2018-02-06T16:49:20.920Z,41.20
2018-02-06T16:51:50.152Z,41.00
2018-02-06T16:54:18.435Z,40.80
2018-02-06T16:56:45.947Z,40.80
2018-02-06T16:59:14.236Z,40.60
2018-02-06T17:01:41.741Z,40.70
2018-02-06T17:04:09.266Z,40.50
2018-02-06T17:06:37.529Z,40.50
2018-02-06T17:09:05.025Z,40.50
2018-02-06T17:11:32.554Z,40.40
2018-02-06T17:14:00.817Z,40.30
2018-02-06T17:16:28.347Z,40.30
2018-02-06T17:18:55.844Z,40.30
2018-02-06T17:21:24.143Z,40.20
2018-02-06T17:23:51.664Z,40.20
2018-02-06T17:26:19.945Z,40.40
2018-02-06T17:28:48.243Z,40.50
2018-02-06T17:31:15.737Z,40.50
2018-02-06T17:33:43.256Z,40.30
2018-02-06T17:36:10.757Z,40.40
2018-02-06T17:38:38.289Z,40.90
2018-02-06T17:41:05.822Z,40.80
2018-02-06T17:43:34.134Z,40.70
2018-02-06T17:46:01.665Z,40.70
2018-02-06T17:48:29.168Z,40.80
2018-02-06T17:50:58.632Z,40.90
2018-02-06T17:53:26.171Z,40.70
2018-02-06T17:55:53.701Z,41.10
2018-02-06T17:58:21.991Z,41.10
2018-02-06T18:00:50.272Z,41.20
2018-02-06T18:03:18.581Z,41.30
2018-02-06T18:05:46.110Z,41.30
2018-02-06T18:08:14.373Z,41.10
2018-02-06T18:10:42.640Z,41.60
2018-02-06T18:13:10.169Z,40.90
2018-02-06T18:15:37.684Z,41.10
2018-02-06T18:18:05.204Z,41.50
2018-02-06T18:20:32.703Z,42.20
2018-02-06T18:23:00.235Z,42.90
2018-02-06T18:25:29.469Z,42.10
2018-02-06T18:27:56.993Z,42.10
2018-02-06T18:30:25.290Z,43.10
2018-02-06T18:32:52.797Z,43.10
2018-02-06T18:35:20.312Z,43.60
2018-02-06T18:37:47.820Z,43.80
2018-02-06T18:40:17.289Z,43.70
2018-02-06T18:42:44.792Z,43.60
2018-02-06T18:45:14.014Z,43.20
2018-02-06T18:47:41.541Z,43.20
2018-02-06T18:50:09.042Z,43.00
2018-02-06T18:52:36.565Z,42.60
2018-02-06T18:55:04.849Z,42.30
2018-02-06T18:57:35.072Z,42.20
2018-02-06T19:00:03.437Z,42.20
2018-02-06T19:02:31.722Z,42.10
2018-02-06T19:05:00.007Z,41.90
2018-02-06T19:07:27.513Z,41.80
2018-02-06T19:09:55.033Z,41.80
2018-02-06T19:12:22.576Z,42.10
2018-02-06T19:14:50.170Z,42.00
2018-02-06T19:17:17.700Z,41.80
2018-02-06T19:19:45.204Z,42.00
2018-02-06T19:22:12.785Z,42.00
2018-02-06T19:24:41.053Z,42.10
2018-02-06T19:27:08.576Z,42.10
2018-02-06T19:29:36.078Z,42.40
2018-02-06T19:32:04.377Z,41.60
2018-02-06T19:34:31.901Z,41.60
2018-02-06T19:36:59.405Z,41.50
2018-02-06T19:39:26.936Z,41.90
2018-02-06T19:41:55.205Z,41.20
2018-02-06T19:44:23.488Z,41.20
2018-02-06T19:46:51.768Z,41.10
2018-02-06T19:49:20.028Z,41.00
2018-02-06T19:51:48.313Z,41.00
2018-02-06T19:54:16.578Z,40.90
2018-02-06T19:56:45.237Z,40.90
2018-02-06T19:59:12.796Z,40.90
2018-02-06T20:01:41.284Z,40.80
2018-02-06T20:04:08.841Z,40.80
2018-02-06T20:06:36.358Z,40.80
2018-02-06T20:09:03.877Z,40.30
2018-02-06T20:11:32.137Z,40.70
2018-02-06T20:14:00.451Z,40.70
2018-02-06T20:16:27.952Z,40.70
2018-02-06T20:18:57.900Z,40.70
2018-02-06T20:21:26.198Z,40.60
2018-02-06T20:23:53.714Z,40.60
2018-02-06T20:26:22.938Z,40.20
2018-02-06T20:28:50.438Z,40.50
2018-02-06T20:31:17.957Z,40.50
2018-02-06T20:33:46.967Z,40.50
2018-02-06T20:36:15.649Z,40.40
2018-02-06T20:38:43.517Z,40.40
2018-02-06T20:41:11.378Z,40.40
2018-02-06T20:43:39.143Z,40.40
2018-02-06T20:46:07.110Z,40.40
2018-02-06T20:48:34.927Z,40.30
2018-02-06T20:51:04.480Z,40.20
2018-02-06T20:53:33.292Z,40.30
2018-02-06T20:56:03.657Z,39.70
2018-02-06T20:58:32.221Z,40.20
2018-02-06T21:01:00.140Z,40.10
2018-02-06T21:03:27.880Z,40.10
2018-02-06T21:05:56.689Z,40.20
2018-02-06T21:08:24.453Z,40.10
2018-02-06T21:10:52.032Z,40.10
2018-02-06T21:13:19.537Z,40.00
2018-02-06T21:15:47.879Z,40.00
2018-02-06T21:18:18.293Z,40.00
2018-02-06T21:20:46.010Z,40.00
2018-02-06T21:23:13.693Z,40.00
2018-02-06T21:25:43.209Z,39.90
2018-02-06T21:28:11.164Z,39.90
2018-02-06T21:30:38.799Z,39.90
2018-02-06T21:33:07.003Z,39.90
2018-02-06T21:35:34.792Z,39.90
2018-02-06T21:38:04.286Z,39.80
2018-02-06T21:40:32.851Z,39.70
2018-02-06T21:43:00.922Z,39.80
2018-02-06T21:45:28.677Z,40.40
2018-02-06T21:47:56.286Z,39.70
2018-02-06T21:50:24.585Z,40.40
2018-02-06T21:52:52.872Z,39.60
2018-02-06T21:55:20.596Z,39.70
2018-02-06T21:57:48.108Z,39.60
2018-02-06T22:00:15.619Z,39.60
2018-02-06T22:02:44.898Z,39.50
2018-02-06T22:05:13.169Z,39.50
2018-02-06T22:07:40.713Z,39.50
2018-02-06T22:10:08.264Z,40.00
2018-02-06T22:12:35.849Z,39.40
2018-02-06T22:15:04.502Z,40.00
2018-02-06T22:17:32.114Z,39.40
2018-02-06T22:20:01.152Z,39.30
2018-02-06T22:22:30.038Z,39.30
2018-02-06T22:24:58.826Z,39.30
2018-02-06T22:27:26.374Z,39.20
2018-02-06T22:29:54.147Z,39.30
2018-02-06T22:32:21.909Z,39.30
2018-02-06T22:34:49.699Z,39.30
2018-02-06T22:37:18.185Z,39.20
2018-02-06T22:39:46.480Z,39.20
2018-02-06T22:42:13.993Z,39.20
2018-02-06T22:44:41.489Z,39.20
2018-02-06T22:47:11.980Z,39.10
2018-02-06T22:49:39.609Z,39.70
2018-02-06T22:52:07.137Z,39.10
2018-02-06T22:54:34.641Z,39.00
2018-02-06T22:57:02.156Z,39.00
2018-02-06T22:59:29.657Z,39.10
2018-02-06T23:01:59.160Z,39.20
2018-02-06T23:04:26.682Z,39.20
2018-02-06T23:06:56.014Z,39.30
2018-02-06T23:09:23.534Z,39.20
2018-02-06T23:11:51.029Z,39.20
2018-02-06T23:14:18.999Z,39.20
2018-02-06T23:16:48.445Z,39.20
2018-02-06T23:19:15.975Z,39.20
2018-02-06T23:21:43.493Z,39.30
2018-02-06T23:24:11.762Z,39.30
2018-02-06T23:26:40.053Z,39.30
2018-02-06T23:29:07.544Z,39.30
2018-02-06T23:31:35.061Z,39.30
2018-02-06T23:34:02.581Z,39.30
2018-02-06T23:36:30.865Z,39.70
2018-02-06T23:38:59.582Z,39.60
2018-02-06T23:41:27.089Z,39.70
2018-02-06T23:43:54.610Z,40.30
2018-02-06T23:46:22.109Z,40.40
2018-02-06T23:48:49.620Z,40.70
2018-02-06T23:51:17.128Z,41.40
2018-02-06T23:53:46.157Z,40.90
2018-02-06T23:56:13.649Z,40.80
2018-02-06T23:58:41.162Z,41.00
